createdAt,value
2022-10-20T00:01:00.596Z,17.08
2022-10-20T00:03:27.946Z,9.30
2022-10-20T00:05:55.429Z,16.33
2022-10-20T00:08:22.015Z,18.60
2022-10-20T00:10:55.790Z,16.38
2022-10-20T00:13:23.628Z,16.27
2022-10-20T00:15:54.988Z,15.93
2022-10-20T00:18:22.773Z,18.02
2022-10-20T00:20:49.841Z,20.27
2022-10-20T00:23:16.629Z,17.60
2022-10-20T00:25:43.220Z,18.67
2022-10-20T00:28:10.097Z,22.40
2022-10-20T00:30:38.807Z,19.77
2022-10-20T00:33:06.043Z,21.15
2022-10-20T00:35:33.756Z,19.38
2022-10-20T00:38:00.391Z,19.42
2022-10-20T00:40:26.994Z,21.48
2022-10-20T00:42:53.555Z,18.45
2022-10-20T00:45:22.222Z,16.23
2022-10-20T00:48:01.806Z,19.95
2022-10-20T00:50:34.691Z,13.45
2022-10-20T00:53:02.707Z,19.27
2022-10-20T00:55:32.101Z,21.27
2022-10-20T00:58:00.400Z,23.00
2022-10-20T01:00:28.155Z,12.40
2022-10-20T01:02:57.906Z,21.10
2022-10-20T01:05:25.092Z,21.50
2022-10-20T01:07:51.716Z,20.80
2022-10-20T01:10:18.974Z,15.55
2022-10-20T01:13:00.248Z,13.82
2022-10-20T01:15:56.125Z,17.90
2022-10-20T01:18:40.555Z,19.40
2022-10-20T01:21:09.857Z,18.08
2022-10-20T01:23:55.954Z,22.77
2022-10-20T01:26:59.944Z,16.15
2022-10-20T01:29:39.069Z,25.27
2022-10-20T01:32:19.871Z,22.35
2022-10-20T01:34:53.384Z,16.77
2022-10-20T01:37:34.449Z,13.60
2022-10-20T01:40:40.566Z,21.48
2022-10-20T01:43:11.433Z,26.53
2022-10-20T01:45:43.611Z,17.02
2022-10-20T01:48:13.011Z,12.05
2022-10-20T01:50:41.582Z,17.90
2022-10-20T01:53:09.329Z,20.17
2022-10-20T01:55:37.735Z,21.27
2022-10-20T01:58:29.319Z,21.35
2022-10-20T02:01:02.745Z,20.88
2022-10-20T02:03:38.395Z,17.35
2022-10-20T02:07:03.609Z,25.33
2022-10-20T02:09:33.372Z,17.30
2022-10-20T02:12:10.416Z,16.35
2022-10-20T02:14:38.408Z,23.10
2022-10-20T02:17:10.636Z,14.52
2022-10-20T02:19:41.103Z,16.65
2022-10-20T02:22:09.845Z,11.02
2022-10-20T02:24:38.753Z,20.08
2022-10-20T02:27:29.045Z,21.58
2022-10-20T02:30:02.959Z,23.88
2022-10-20T02:32:31.275Z,24.57
2022-10-20T02:34:58.103Z,15.75
2022-10-20T02:37:24.707Z,20.50
2022-10-20T02:39:51.301Z,22.60
2022-10-20T02:42:17.893Z,18.70
2022-10-20T02:44:44.468Z,23.48
2022-10-20T02:47:11.112Z,12.88
2022-10-20T02:49:37.722Z,21.85
2022-10-20T02:52:04.372Z,25.13
2022-10-20T02:54:30.927Z,22.65
2022-10-20T02:56:57.511Z,18.25
2022-10-20T02:59:24.107Z,23.00
2022-10-20T03:01:52.220Z,25.85
2022-10-20T03:04:18.959Z,25.85
2022-10-20T03:06:45.607Z,22.75
2022-10-20T03:09:12.251Z,24.70
2022-10-20T03:11:38.836Z,28.98
2022-10-20T03:14:05.511Z,28.00
2022-10-20T03:16:32.106Z,20.17
2022-10-20T03:19:01.624Z,27.95
2022-10-20T03:21:31.264Z,23.23
2022-10-20T03:23:57.836Z,22.48
2022-10-20T03:26:24.403Z,17.52
2022-10-20T03:28:51.070Z,26.27
2022-10-20T03:31:17.683Z,18.35
2022-10-20T03:33:44.260Z,28.80
2022-10-20T03:36:11.395Z,31.40
2022-10-20T03:38:40.302Z,28.42
2022-10-20T03:41:06.930Z,24.10
2022-10-20T03:43:33.535Z,18.08
2022-10-20T03:46:05.673Z,21.17
2022-10-20T03:48:32.778Z,17.98
2022-10-20T03:51:03.164Z,23.30
2022-10-20T03:53:30.314Z,26.02
2022-10-20T03:55:57.099Z,23.05
2022-10-20T03:58:24.237Z,25.13
2022-10-20T04:00:51.512Z,31.25
2022-10-20T04:03:18.114Z,27.35
2022-10-20T04:05:44.670Z,27.92
2022-10-20T04:08:11.376Z,25.23
2022-10-20T04:10:38.128Z,20.70
2022-10-20T04:13:04.864Z,32.88
2022-10-20T04:15:31.576Z,31.13
2022-10-20T04:17:58.271Z,24.88
2022-10-20T04:20:24.967Z,28.35
2022-10-20T04:22:51.559Z,29.13
2022-10-20T04:25:18.445Z,28.15
2022-10-20T04:27:45.090Z,31.80
2022-10-20T04:30:12.008Z,32.70
2022-10-20T04:32:38.695Z,28.90
2022-10-20T04:35:05.773Z,33.17
2022-10-20T04:37:32.458Z,30.10
2022-10-20T04:39:59.038Z,25.23
2022-10-20T04:42:25.686Z,37.45
2022-10-20T04:44:52.374Z,29.25
2022-10-20T04:47:18.963Z,31.38
2022-10-20T04:49:45.566Z,26.58
2022-10-20T04:52:12.135Z,26.40
2022-10-20T04:54:38.746Z,32.13
2022-10-20T04:57:06.219Z,31.02
2022-10-20T04:59:32.897Z,29.00
2022-10-20T05:01:59.502Z,38.25
2022-10-20T05:04:26.237Z,37.90
2022-10-20T05:06:52.849Z,23.35
2022-10-20T05:09:19.485Z,29.52
2022-10-20T05:11:46.409Z,28.02
2022-10-20T05:14:13.044Z,33.92
2022-10-20T05:16:39.687Z,28.13
2022-10-20T05:19:06.307Z,17.30
2022-10-20T05:21:33.495Z,38.60
2022-10-20T05:24:02.116Z,26.17
2022-10-20T05:26:32.431Z,35.20
2022-10-20T05:28:59.019Z,26.83
2022-10-20T05:31:25.674Z,19.95
2022-10-20T05:33:54.417Z,31.45
2022-10-20T05:36:24.234Z,24.90
2022-10-20T05:38:53.580Z,32.15
2022-10-20T05:41:23.086Z,26.65
2022-10-20T05:43:57.232Z,26.73
2022-10-20T05:46:25.283Z,26.23
2022-10-20T05:48:57.836Z,26.55
2022-10-20T05:51:27.501Z,31.55
2022-10-20T05:53:58.547Z,29.70
2022-10-20T05:56:27.331Z,27.83
2022-10-20T05:58:54.165Z,30.15
2022-10-20T06:01:39.003Z,31.38
2022-10-20T06:04:08.457Z,34.50
2022-10-20T06:06:36.091Z,30.63
2022-10-20T06:09:06.995Z,34.53
2022-10-20T06:11:38.354Z,33.45
2022-10-20T06:14:07.032Z,37.13
2022-10-20T06:16:33.709Z,33.42
2022-10-20T06:19:00.643Z,25.92
2022-10-20T06:21:29.810Z,28.42
2022-10-20T06:24:03.351Z,21.23
2022-10-20T06:26:32.967Z,21.92
2022-10-20T06:29:04.239Z,33.83
2022-10-20T06:31:33.630Z,28.35
2022-10-20T06:34:00.673Z,29.25
2022-10-20T06:36:27.931Z,30.08
2022-10-20T06:38:57.213Z,41.05
2022-10-20T06:41:25.207Z,37.60
2022-10-20T06:43:59.223Z,30.08
2022-10-20T06:46:31.222Z,30.50
2022-10-20T06:49:00.805Z,36.95
2022-10-20T06:51:27.398Z,35.17
2022-10-20T06:53:53.976Z,39.80
2022-10-20T06:56:25.863Z,36.95
2022-10-20T06:58:54.093Z,36.13
2022-10-20T07:01:23.437Z,34.55
2022-10-20T07:03:53.180Z,46.60
2022-10-20T07:06:22.579Z,41.22
2022-10-20T07:08:50.907Z,42.60
2022-10-20T07:11:20.898Z,39.78
2022-10-20T07:13:49.188Z,30.13
2022-10-20T07:16:19.265Z,40.90
2022-10-20T07:18:46.273Z,39.17
2022-10-20T07:21:16.822Z,36.63
2022-10-20T07:23:43.854Z,41.00
2022-10-20T07:26:17.967Z,45.08
2022-10-20T07:28:49.884Z,38.92
2022-10-20T07:31:21.486Z,33.63
2022-10-20T07:34:07.149Z,38.58
2022-10-20T07:36:36.383Z,38.05
2022-10-20T07:39:05.316Z,47.80
2022-10-20T07:41:32.433Z,36.30
2022-10-20T07:43:59.073Z,36.92
2022-10-20T07:46:26.348Z,34.22
2022-10-20T07:48:52.954Z,37.55
2022-10-20T07:51:24.531Z,43.92
2022-10-20T07:54:00.502Z,40.28
2022-10-20T07:56:29.438Z,32.80
2022-10-20T07:58:56.386Z,33.83
2022-10-20T08:01:23.360Z,33.35
2022-10-20T08:03:50.070Z,38.28
2022-10-20T08:06:16.712Z,38.72
2022-10-20T08:08:43.467Z,41.33
2022-10-20T08:11:10.643Z,38.35
2022-10-20T08:13:39.420Z,28.05
2022-10-20T08:16:06.445Z,38.67
2022-10-20T08:18:41.904Z,41.30
2022-10-20T08:21:17.334Z,41.90
2022-10-20T08:23:45.786Z,39.38
2022-10-20T08:26:16.957Z,40.75
2022-10-20T08:28:43.526Z,42.35
2022-10-20T08:31:10.148Z,31.17
2022-10-20T08:33:36.923Z,46.22
2022-10-20T08:36:06.016Z,42.13
2022-10-20T08:38:32.943Z,44.40
2022-10-20T08:41:01.080Z,41.15
2022-10-20T08:43:29.552Z,35.58
2022-10-20T08:45:56.271Z,43.15
2022-10-20T08:48:27.512Z,42.33
2022-10-20T08:50:54.692Z,36.58
2022-10-20T08:53:23.940Z,43.55
2022-10-20T08:55:51.335Z,49.45
2022-10-20T08:58:23.680Z,43.00
2022-10-20T09:00:57.068Z,46.03
2022-10-20T09:03:30.006Z,44.47
2022-10-20T09:06:12.708Z,43.55
2022-10-20T09:08:40.681Z,41.70
2022-10-20T09:11:09.215Z,45.83
2022-10-20T09:13:37.085Z,43.75
2022-10-20T09:16:22.046Z,47.40
2022-10-20T09:19:01.316Z,42.30
2022-10-20T09:21:31.640Z,39.65
2022-10-20T09:24:03.433Z,43.55
2022-10-20T09:26:57.461Z,40.88
2022-10-20T09:32:16.770Z,37.72
2022-10-20T09:34:48.393Z,41.60
2022-10-20T09:37:19.366Z,46.70
2022-10-20T09:39:55.574Z,33.65
2022-10-20T09:42:30.166Z,37.95
2022-10-20T09:45:31.118Z,47.08
2022-10-20T09:48:16.505Z,43.03
2022-10-20T09:50:48.018Z,41.22
2022-10-20T09:53:25.280Z,40.38
2022-10-20T09:55:52.254Z,38.88
2022-10-20T09:58:18.789Z,44.00
2022-10-20T10:00:54.161Z,42.88
2022-10-20T10:03:22.904Z,43.20
2022-10-20T10:05:51.929Z,42.83
2022-10-20T10:08:20.245Z,41.30
2022-10-20T10:11:04.647Z,46.17
2022-10-20T10:13:39.407Z,40.53
2022-10-20T10:18:38.295Z,40.65
2022-10-20T10:21:14.160Z,39.53
2022-10-20T10:24:04.697Z,37.65
2022-10-20T10:26:42.342Z,44.65
2022-10-20T10:29:28.378Z,38.60
2022-10-20T10:32:18.398Z,50.88
2022-10-20T10:35:15.782Z,45.75
2022-10-20T10:37:44.274Z,41.72
2022-10-20T10:40:17.714Z,40.00
2022-10-20T10:43:03.104Z,45.30
2022-10-20T10:45:41.165Z,38.63
2022-10-20T10:48:29.929Z,39.30
2022-10-20T10:51:16.734Z,42.28
2022-10-20T10:53:56.764Z,71.03
2022-10-20T10:56:34.063Z,42.78
2022-10-20T10:59:32.817Z,43.25
2022-10-20T11:03:07.284Z,41.67
2022-10-20T11:05:46.768Z,45.15
2022-10-20T11:08:33.873Z,39.65
2022-10-20T11:11:12.221Z,43.72
2022-10-20T11:13:41.599Z,35.15
2022-10-20T11:16:28.025Z,45.38
2022-10-20T11:19:08.029Z,32.72
2022-10-20T11:21:34.624Z,44.40
2022-10-20T11:24:12.071Z,41.92
2022-10-20T11:26:45.568Z,47.90
2022-10-20T11:29:27.683Z,45.45
2022-10-20T11:32:03.648Z,34.13
2022-10-20T11:34:39.259Z,38.25
2022-10-20T11:37:17.507Z,48.88
2022-10-20T11:39:56.461Z,42.28
2022-10-20T11:42:50.897Z,38.15
2022-10-20T11:45:45.136Z,39.40
2022-10-20T11:48:40.195Z,42.90
2022-10-20T11:51:31.653Z,40.75
2022-10-20T11:54:25.954Z,41.88
2022-10-20T11:57:09.947Z,45.17
2022-10-20T11:59:55.278Z,42.25
2022-10-20T12:02:59.692Z,41.33
2022-10-20T12:05:51.850Z,45.25
2022-10-20T12:08:53.472Z,37.90
2022-10-20T12:11:57.279Z,49.95
2022-10-20T12:14:43.276Z,46.72
2022-10-20T12:17:21.728Z,43.22
2022-10-20T12:19:52.543Z,56.88
2022-10-20T12:22:28.450Z,42.47
2022-10-20T12:24:54.960Z,41.03
2022-10-20T12:27:24.660Z,53.30
2022-10-20T12:29:55.603Z,40.28
2022-10-20T12:32:24.107Z,52.42
2022-10-20T12:34:58.070Z,46.97
2022-10-20T12:37:24.730Z,47.07
2022-10-20T12:40:11.497Z,54.88
2022-10-20T12:42:45.263Z,42.92
2022-10-20T12:45:39.480Z,56.72
2022-10-20T12:48:08.287Z,61.05
2022-10-20T12:50:45.157Z,58.25
2022-10-20T12:53:13.954Z,60.03
2022-10-20T12:55:42.216Z,57.28
2022-10-20T12:58:17.972Z,58.58
2022-10-20T13:00:47.502Z,54.63
2022-10-20T13:03:40.909Z,60.95
2022-10-20T13:06:22.553Z,53.10
2022-10-20T13:09:04.532Z,50.17
2022-10-20T13:11:37.676Z,54.42
2022-10-20T13:14:34.543Z,52.42
2022-10-20T13:17:12.794Z,61.72
2022-10-20T13:19:49.971Z,56.15
2022-10-20T13:22:47.099Z,50.95
2022-10-20T13:25:27.845Z,51.75
2022-10-20T13:28:07.332Z,49.00
2022-10-20T13:30:35.956Z,54.63
2022-10-20T13:33:33.863Z,50.63
2022-10-20T13:36:32.668Z,53.45
2022-10-20T13:39:11.539Z,62.30
2022-10-20T13:41:55.754Z,54.75
2022-10-20T13:44:39.237Z,53.83
2022-10-20T13:47:33.807Z,64.78
2022-10-20T13:50:12.502Z,68.90
2022-10-20T13:52:45.708Z,58.53
2022-10-20T13:55:28.615Z,66.15
2022-10-20T13:58:06.336Z,62.55
2022-10-20T14:00:34.222Z,50.35
2022-10-20T14:03:04.088Z,56.47
2022-10-20T14:05:38.042Z,46.63
2022-10-20T14:08:10.410Z,39.57
2022-10-20T14:10:44.979Z,51.38
2022-10-20T14:13:17.271Z,42.03
2022-10-20T14:15:58.952Z,41.60
2022-10-20T14:18:30.807Z,37.55
2022-10-20T14:21:15.333Z,38.30
2022-10-20T14:23:44.268Z,40.97
2022-10-20T14:26:15.320Z,40.88
2022-10-20T14:28:43.544Z,34.30
2022-10-20T14:31:14.323Z,41.50
2022-10-20T14:33:46.229Z,29.85
2022-10-20T14:36:29.930Z,36.58
2022-10-20T14:39:00.539Z,34.30
2022-10-20T14:41:31.403Z,39.05
2022-10-20T14:44:06.119Z,37.70
2022-10-20T14:46:45.394Z,39.08
2022-10-20T14:49:27.774Z,31.98
2022-10-20T14:52:21.313Z,38.63
2022-10-20T14:54:50.285Z,44.28
2022-10-20T14:57:16.852Z,44.63
2022-10-20T15:00:22.779Z,34.40
2022-10-20T15:02:56.321Z,37.90
2022-10-20T15:05:39.957Z,38.38
2022-10-20T15:08:28.365Z,38.22
2022-10-20T15:10:55.930Z,34.08
2022-10-20T15:13:29.834Z,41.33
2022-10-20T15:15:59.059Z,38.67
2022-10-20T15:18:27.123Z,37.47
2022-10-20T15:20:55.844Z,34.20
2022-10-20T15:23:28.848Z,31.02
2022-10-20T15:26:02.887Z,32.00
2022-10-20T15:28:39.424Z,46.88
2022-10-20T15:31:19.222Z,29.90
2022-10-20T15:33:46.532Z,36.53
2022-10-20T15:36:20.277Z,30.92
2022-10-20T15:38:47.891Z,32.95
2022-10-20T15:41:19.003Z,30.85
2022-10-20T15:43:45.705Z,37.40
2022-10-20T15:46:13.725Z,32.13
2022-10-20T15:48:41.559Z,37.38
2022-10-20T15:51:20.001Z,35.30
2022-10-20T15:53:49.348Z,35.42
2022-10-20T15:56:19.190Z,36.15
2022-10-20T15:58:46.636Z,34.72
2022-10-20T16:01:16.348Z,34.13
2022-10-20T16:03:43.600Z,29.05
2022-10-20T16:06:15.407Z,29.83
2022-10-20T16:08:43.430Z,34.90
2022-10-20T16:11:12.799Z,28.20
2022-10-20T16:13:39.497Z,36.10
2022-10-20T16:16:08.129Z,26.90
2022-10-20T16:18:35.097Z,28.25
2022-10-20T16:21:04.415Z,24.60
2022-10-20T16:23:31.054Z,23.52
2022-10-20T16:25:57.792Z,23.83
2022-10-20T16:28:24.351Z,29.65
2022-10-20T16:30:50.913Z,30.25
2022-10-20T16:33:17.497Z,24.88
2022-10-20T16:35:44.773Z,31.58
2022-10-20T16:38:11.514Z,26.90
2022-10-20T16:40:38.184Z,26.08
2022-10-20T16:43:04.960Z,23.17
2022-10-20T16:45:31.699Z,24.05
2022-10-20T16:47:58.498Z,24.52
2022-10-20T16:50:25.110Z,23.05
2022-10-20T16:52:51.747Z,25.83
2022-10-20T16:55:18.433Z,26.77
2022-10-20T16:57:45.080Z,29.77
2022-10-20T17:00:12.337Z,27.85
2022-10-20T17:02:40.235Z,20.77
2022-10-20T17:05:09.334Z,28.20
2022-10-20T17:07:37.041Z,25.60
2022-10-20T17:10:04.297Z,34.08
2022-10-20T17:12:30.891Z,22.58
2022-10-20T17:14:57.480Z,28.10
2022-10-20T17:17:24.362Z,21.73
2022-10-20T17:19:51.130Z,32.40
2022-10-20T17:22:17.774Z,21.30
2022-10-20T17:24:44.375Z,24.20
2022-10-20T17:27:11.019Z,29.30
2022-10-20T17:29:37.672Z,25.65
2022-10-20T17:32:04.557Z,25.20
2022-10-20T17:34:31.200Z,22.80
2022-10-20T17:36:57.827Z,21.08
2022-10-20T17:39:24.640Z,27.05
2022-10-20T17:41:51.266Z,28.08
2022-10-20T17:44:17.808Z,24.00
2022-10-20T17:46:44.395Z,22.63
2022-10-20T17:49:10.961Z,18.42
2022-10-20T17:51:37.707Z,24.83
2022-10-20T17:54:04.910Z,19.77
2022-10-20T17:56:35.304Z,21.65
2022-10-20T17:59:04.618Z,23.75
2022-10-20T18:01:32.670Z,26.27
2022-10-20T18:04:07.900Z,23.55
2022-10-20T18:06:35.460Z,27.65
2022-10-20T18:09:05.687Z,23.67
2022-10-20T18:11:34.220Z,32.88
2022-10-20T18:14:01.706Z,32.45
2022-10-20T18:16:30.994Z,30.98
2022-10-20T18:21:26.103Z,28.92
2022-10-20T18:23:58.753Z,39.38
2022-10-20T18:26:25.694Z,30.75
2022-10-20T18:28:52.548Z,39.97
2022-10-20T18:31:23.441Z,39.65
2022-10-20T18:33:54.096Z,35.90
2022-10-20T18:36:20.741Z,46.13
2022-10-20T18:38:47.933Z,40.90
2022-10-20T18:41:21.910Z,45.40
2022-10-20T18:43:58.147Z,47.40
2022-10-20T18:46:26.175Z,41.35
2022-10-20T18:48:53.324Z,42.22
2022-10-20T18:51:19.987Z,39.65
2022-10-20T18:53:47.155Z,44.78
2022-10-20T18:56:18.916Z,55.05
2022-10-20T18:59:03.805Z,42.83
2022-10-20T19:01:32.870Z,37.10
2022-10-20T19:04:00.549Z,49.75
2022-10-20T19:06:29.956Z,71.30
2022-10-20T19:09:00.418Z,52.17
2022-10-20T19:11:29.773Z,45.55
2022-10-20T19:13:57.568Z,45.08
2022-10-20T19:16:26.867Z,50.15
2022-10-20T19:18:56.182Z,43.45
2022-10-20T19:21:23.841Z,49.13
2022-10-20T19:24:02.793Z,41.17
2022-10-20T19:26:32.280Z,50.58
2022-10-20T19:29:02.203Z,46.70
2022-10-20T19:31:34.156Z,43.97
2022-10-20T19:34:05.652Z,53.38
2022-10-20T19:36:33.120Z,45.10
2022-10-20T19:38:59.937Z,44.20
2022-10-20T19:41:27.365Z,51.35
2022-10-20T19:43:54.643Z,52.83
2022-10-20T19:46:22.087Z,57.65
2022-10-20T19:48:49.720Z,52.22
2022-10-20T19:51:19.161Z,56.53
2022-10-20T19:53:46.716Z,51.10
2022-10-20T19:56:14.033Z,44.25
2022-10-20T19:58:45.600Z,41.60
2022-10-20T20:01:13.607Z,48.22
2022-10-20T20:03:40.468Z,44.53
2022-10-20T20:06:16.904Z,51.13
2022-10-20T20:08:45.601Z,43.67
2022-10-20T20:11:23.277Z,46.97
2022-10-20T20:13:55.789Z,42.15
2022-10-20T20:16:22.557Z,45.30
2022-10-20T20:18:49.449Z,41.20
2022-10-20T20:21:16.963Z,42.67
2022-10-20T20:24:00.115Z,39.90
2022-10-20T20:26:32.929Z,35.45
2022-10-20T20:28:59.873Z,44.30
2022-10-20T20:31:27.019Z,40.58
2022-10-20T20:33:54.403Z,40.72
2022-10-20T20:36:21.381Z,36.33
2022-10-20T20:38:48.220Z,40.95
2022-10-20T20:41:18.259Z,35.60
2022-10-20T20:43:45.283Z,35.00
2022-10-20T20:46:15.037Z,35.90
2022-10-20T20:48:42.396Z,31.17
2022-10-20T20:51:09.151Z,34.08
2022-10-20T20:53:36.657Z,30.15
2022-10-20T20:56:12.071Z,39.05
2022-10-20T20:58:41.783Z,27.02
2022-10-20T21:01:24.164Z,38.08
2022-10-20T21:03:57.840Z,33.35
2022-10-20T21:06:33.967Z,38.22
2022-10-20T21:09:11.710Z,29.25
2022-10-20T21:11:38.380Z,33.00
2022-10-20T21:14:05.271Z,39.78
2022-10-20T21:16:36.862Z,36.90
2022-10-20T21:19:10.588Z,28.80
2022-10-20T21:21:43.341Z,29.98
2022-10-20T21:24:11.579Z,41.88
2022-10-20T21:26:38.457Z,34.90
2022-10-20T21:29:05.667Z,35.22
2022-10-20T21:31:32.298Z,37.35
2022-10-20T21:34:01.315Z,38.65
2022-10-20T21:36:30.052Z,35.85
2022-10-20T21:38:57.885Z,35.35
2022-10-20T21:41:27.379Z,33.83
2022-10-20T21:43:55.878Z,32.38
2022-10-20T21:46:32.068Z,37.78
2022-10-20T21:49:01.088Z,36.50
2022-10-20T21:51:32.530Z,37.05
2022-10-20T21:54:07.914Z,33.38
2022-10-20T21:56:36.764Z,42.33
2022-10-20T21:59:05.325Z,40.97
2022-10-20T22:01:32.409Z,37.53
2022-10-20T22:03:59.156Z,40.00
2022-10-20T22:06:27.459Z,39.38
2022-10-20T22:08:57.589Z,45.15
2022-10-20T22:11:27.735Z,38.15
2022-10-20T22:13:55.257Z,43.60
2022-10-20T22:16:25.714Z,42.22
2022-10-20T22:19:00.402Z,47.30
2022-10-20T22:23:55.576Z,44.13
2022-10-20T22:26:25.672Z,45.75
2022-10-20T22:28:52.459Z,44.28
2022-10-20T22:31:19.268Z,46.47
2022-10-20T22:33:45.860Z,48.33
2022-10-20T22:36:12.489Z,47.53
2022-10-20T22:38:39.144Z,52.58
2022-10-20T22:41:05.905Z,61.90
2022-10-20T22:43:32.687Z,53.55
2022-10-20T22:45:59.312Z,53.92
2022-10-20T22:48:25.939Z,57.33
2022-10-20T22:50:52.635Z,55.72
2022-10-20T22:53:19.363Z,53.60
2022-10-20T22:55:46.433Z,55.40
2022-10-20T22:58:13.147Z,55.42
2022-10-20T23:00:40.165Z,54.78
2022-10-20T23:03:06.932Z,57.97
2022-10-20T23:05:34.073Z,54.15
2022-10-20T23:08:00.687Z,46.40
2022-10-20T23:10:27.600Z,57.17
2022-10-20T23:12:54.380Z,49.65
2022-10-20T23:15:21.101Z,48.85
2022-10-20T23:17:47.997Z,63.50
2022-10-20T23:20:14.657Z,55.97
2022-10-20T23:22:41.351Z,51.13
2022-10-20T23:25:08.319Z,57.40
2022-10-20T23:27:35.900Z,61.78
2022-10-20T23:30:02.929Z,64.63
2022-10-20T23:32:29.726Z,60.17
2022-10-20T23:34:56.320Z,53.70
2022-10-20T23:37:23.573Z,55.35
2022-10-20T23:39:50.136Z,57.33
2022-10-20T23:42:16.839Z,51.55
2022-10-20T23:44:43.602Z,56.65
2022-10-20T23:47:10.184Z,49.97
2022-10-20T23:49:36.764Z,57.40
2022-10-20T23:52:03.317Z,56.13
2022-10-20T23:54:29.935Z,58.85
2022-10-20T23:56:56.516Z,59.13
2022-10-20T23:59:23.148Z,46.97
